createdAt,value
2023-05-17T00:03:45.348Z,10.77
2023-05-17T00:07:56.998Z,7.83
2023-05-17T00:12:08.672Z,7.10
2023-05-17T00:16:20.315Z,7.90
2023-05-17T00:20:31.996Z,11.97
2023-05-17T00:24:43.608Z,9.47
2023-05-17T00:28:55.365Z,8.90
2023-05-17T00:33:07.174Z,11.13
2023-05-17T00:37:18.891Z,9.80
2023-05-17T00:41:30.679Z,11.33
2023-05-17T00:45:42.349Z,11.63
2023-05-17T00:49:54.184Z,7.37
2023-05-17T00:54:06.410Z,8.73
2023-05-17T00:58:18.301Z,5.00
2023-05-17T01:02:31.285Z,10.53
2023-05-17T01:06:43.585Z,7.27
2023-05-17T01:11:14.019Z,11.73
2023-05-17T01:15:31.446Z,9.57
2023-05-17T01:19:55.286Z,9.17
2023-05-17T01:24:26.139Z,8.20
2023-05-17T01:28:40.447Z,12.77
2023-05-17T01:32:55.864Z,8.40
2023-05-17T01:37:07.534Z,5.97
2023-05-17T01:41:29.303Z,8.70
2023-05-17T01:45:47.554Z,15.50
2023-05-17T01:50:00.474Z,9.07
2023-05-17T01:54:14.099Z,15.07
2023-05-17T01:58:26.560Z,14.83
2023-05-17T02:02:38.627Z,8.67
2023-05-17T02:06:50.500Z,10.33
2023-05-17T02:11:02.234Z,7.90
2023-05-17T02:15:16.662Z,9.77
2023-05-17T02:19:28.409Z,12.30
2023-05-17T02:23:40.081Z,8.10
2023-05-17T02:27:51.732Z,12.43
2023-05-17T02:32:03.519Z,15.30
2023-05-17T02:36:15.146Z,8.40
2023-05-17T02:40:26.817Z,12.57
2023-05-17T02:44:38.745Z,17.17
2023-05-17T02:48:50.356Z,11.37
2023-05-17T02:53:02.138Z,15.20
2023-05-17T02:57:13.918Z,10.17
2023-05-17T03:01:26.143Z,7.43
2023-05-17T03:05:38.400Z,10.27
2023-05-17T03:09:50.063Z,10.73
2023-05-17T03:14:02.426Z,14.20
2023-05-17T03:18:16.606Z,13.87
2023-05-17T03:22:28.992Z,12.20
2023-05-17T03:26:41.272Z,14.07
2023-05-17T03:30:54.856Z,9.53
2023-05-17T03:35:07.506Z,10.13
2023-05-17T03:39:20.347Z,12.53
2023-05-17T03:43:32.080Z,5.70
2023-05-17T03:47:45.181Z,13.40
2023-05-17T03:51:57.459Z,6.90
2023-05-17T03:56:10.508Z,12.13
2023-05-17T04:00:23.278Z,11.97
2023-05-17T04:04:37.510Z,9.47
2023-05-17T04:08:49.298Z,8.90
2023-05-17T04:13:01.408Z,7.07
2023-05-17T04:17:14.004Z,7.80
2023-05-17T04:21:27.839Z,9.57
2023-05-17T04:25:40.726Z,9.53
2023-05-17T04:29:53.116Z,8.03
2023-05-17T04:34:05.879Z,8.87
2023-05-17T04:38:17.920Z,8.93
2023-05-17T04:42:29.725Z,8.30
2023-05-17T04:46:44.224Z,7.03
2023-05-17T04:51:00.759Z,11.37
2023-05-17T04:55:12.766Z,9.50
2023-05-17T04:59:24.763Z,11.10
2023-05-17T05:03:36.876Z,6.70
2023-05-17T05:07:51.789Z,8.10
2023-05-17T05:12:04.199Z,10.90
2023-05-17T05:16:17.067Z,6.60
2023-05-17T05:20:29.939Z,9.73
2023-05-17T05:24:42.330Z,11.07
2023-05-17T05:28:54.062Z,6.30
2023-05-17T05:33:06.166Z,11.05
2023-05-17T05:37:19.316Z,8.60
2023-05-17T05:41:31.363Z,6.22
2023-05-17T05:45:46.030Z,7.07
2023-05-17T05:49:58.053Z,7.63
2023-05-17T05:54:10.254Z,11.13
2023-05-17T05:58:23.582Z,8.18
2023-05-17T06:02:37.539Z,10.38
2023-05-17T06:06:49.364Z,9.80
2023-05-17T06:11:01.186Z,8.27
2023-05-17T06:15:12.952Z,8.95
2023-05-17T06:19:24.937Z,14.13
2023-05-17T06:23:36.756Z,5.47
2023-05-17T06:27:48.559Z,3.83
2023-05-17T06:32:00.348Z,7.20
2023-05-17T06:36:12.159Z,9.57
2023-05-17T06:40:23.912Z,9.32
2023-05-17T06:44:35.604Z,6.70
2023-05-17T06:48:50.161Z,8.75
2023-05-17T06:53:02.826Z,7.95
2023-05-17T06:57:14.518Z,5.72
2023-05-17T07:01:26.219Z,5.97
2023-05-17T07:05:37.903Z,3.30
2023-05-17T07:09:49.554Z,5.82
2023-05-17T07:14:01.242Z,4.07
2023-05-17T07:18:14.270Z,3.70
2023-05-17T07:22:26.018Z,4.22
2023-05-17T07:26:37.668Z,6.03
2023-05-17T07:30:49.780Z,5.10
2023-05-17T07:35:03.121Z,2.42
2023-05-17T07:39:14.883Z,3.83
2023-05-17T07:43:26.584Z,3.65
2023-05-17T07:47:38.302Z,3.85
2023-05-17T07:51:50.869Z,4.90
2023-05-17T07:56:02.624Z,3.03
2023-05-17T08:00:14.937Z,4.68
2023-05-17T08:04:26.686Z,4.32
2023-05-17T08:08:38.311Z,4.15
2023-05-17T08:12:49.924Z,3.92
2023-05-17T08:17:01.734Z,4.53
2023-05-17T08:21:13.499Z,7.57
2023-05-17T08:25:25.370Z,5.50
2023-05-17T08:29:39.513Z,3.45
2023-05-17T08:33:51.971Z,4.93
2023-05-17T08:38:03.830Z,3.42
2023-05-17T08:42:27.880Z,2.63
2023-05-17T08:46:41.560Z,2.10
2023-05-17T08:50:55.978Z,1.58
2023-05-17T08:55:09.072Z,5.90
2023-05-17T08:59:21.962Z,4.40
2023-05-17T09:03:35.589Z,1.88
2023-05-17T09:07:49.127Z,2.90
2023-05-17T09:12:02.559Z,9.82
2023-05-17T09:16:15.059Z,3.80
2023-05-17T09:20:35.312Z,2.95
2023-05-17T09:24:47.218Z,2.85
2023-05-17T09:28:58.994Z,4.55
2023-05-17T09:33:13.261Z,2.28
2023-05-17T09:37:26.873Z,3.85
2023-05-17T09:41:51.186Z,1.83
2023-05-17T09:46:02.912Z,1.85
2023-05-17T09:50:19.220Z,2.35
2023-05-17T09:54:38.105Z,2.83
2023-05-17T09:58:49.844Z,2.15
2023-05-17T10:03:04.534Z,2.25
2023-05-17T10:07:20.268Z,1.08
2023-05-17T10:11:35.364Z,7.18
2023-05-17T10:15:48.870Z,1.38
2023-05-17T10:20:01.284Z,1.40
2023-05-17T10:24:13.841Z,2.63
2023-05-17T10:28:27.331Z,3.55
2023-05-17T10:32:39.322Z,4.22
2023-05-17T10:36:52.045Z,3.05
2023-05-17T10:41:04.417Z,2.38
2023-05-17T10:45:16.320Z,2.22
2023-05-17T10:49:33.966Z,1.80
2023-05-17T10:54:18.363Z,1.75
2023-05-17T10:58:30.117Z,1.10
2023-05-17T11:02:43.560Z,3.75
2023-05-17T11:07:18.942Z,2.53
2023-05-17T11:11:30.920Z,2.83
2023-05-17T11:15:42.630Z,6.72
2023-05-17T11:19:54.355Z,5.75
2023-05-17T11:24:07.024Z,2.60
2023-05-17T11:28:20.860Z,3.85
2023-05-17T11:32:32.914Z,4.78
2023-05-17T11:36:53.033Z,5.70
2023-05-17T11:41:26.950Z,3.08
2023-05-17T11:45:43.449Z,2.20
2023-05-17T11:49:56.630Z,2.38
2023-05-17T11:54:09.714Z,2.35
2023-05-17T11:58:25.786Z,2.10
2023-05-17T12:02:38.165Z,3.40
2023-05-17T12:06:50.196Z,3.17
2023-05-17T12:11:02.809Z,2.70
2023-05-17T12:15:19.083Z,5.90
2023-05-17T12:19:32.697Z,2.50
2023-05-17T12:23:48.330Z,3.47
2023-05-17T12:28:22.134Z,2.45
2023-05-17T12:32:34.368Z,3.78
2023-05-17T12:36:46.673Z,3.83
2023-05-17T12:41:00.434Z,2.50
2023-05-17T12:45:13.112Z,3.38
2023-05-17T12:49:24.879Z,3.50
2023-05-17T12:53:44.479Z,2.80
2023-05-17T12:57:56.234Z,3.67
2023-05-17T13:02:07.964Z,4.00
2023-05-17T13:06:19.720Z,3.08
2023-05-17T13:10:31.676Z,3.83
2023-05-17T13:14:48.379Z,2.55
2023-05-17T13:19:00.173Z,3.90
2023-05-17T13:23:11.900Z,2.47
2023-05-17T13:27:23.557Z,6.03
2023-05-17T13:31:35.369Z,2.92
2023-05-17T13:35:47.079Z,3.00
2023-05-17T13:39:58.774Z,3.10
2023-05-17T13:44:11.033Z,4.18
2023-05-17T13:48:22.981Z,4.65
2023-05-17T13:52:34.734Z,2.85
2023-05-17T13:56:46.828Z,2.35
2023-05-17T14:00:59.356Z,4.07
2023-05-17T14:05:11.080Z,5.47
2023-05-17T14:09:22.739Z,2.78
2023-05-17T14:13:34.467Z,7.05
2023-05-17T14:17:46.459Z,7.28
2023-05-17T14:21:58.279Z,6.00
2023-05-17T14:26:10.023Z,4.75
2023-05-17T14:30:21.895Z,2.22
2023-05-17T14:34:33.599Z,4.85
2023-05-17T14:38:45.271Z,8.48
2023-05-17T14:42:57.125Z,4.60
2023-05-17T14:47:08.907Z,5.97
2023-05-17T14:51:20.669Z,3.85
2023-05-17T14:55:32.540Z,4.75
2023-05-17T14:59:45.196Z,7.25
2023-05-17T15:03:57.076Z,5.05
2023-05-17T15:08:08.855Z,7.57
2023-05-17T15:12:20.572Z,5.05
2023-05-17T15:16:33.451Z,4.05
2023-05-17T15:20:45.247Z,5.75
2023-05-17T15:24:58.369Z,3.40
2023-05-17T15:29:10.145Z,3.33
2023-05-17T15:33:22.288Z,6.65
2023-05-17T15:37:34.071Z,5.18
2023-05-17T15:41:45.801Z,2.25
2023-05-17T15:45:57.775Z,2.75
2023-05-17T15:50:09.701Z,3.60
2023-05-17T15:54:21.480Z,3.05
2023-05-17T15:58:33.597Z,3.17
2023-05-17T16:02:45.412Z,3.92
2023-05-17T16:06:57.205Z,2.65
2023-05-17T16:11:10.025Z,2.20
2023-05-17T16:15:22.063Z,4.13
2023-05-17T16:19:34.463Z,3.10
2023-05-17T16:23:46.613Z,5.50
2023-05-17T16:27:58.324Z,3.67
2023-05-17T16:32:09.982Z,4.97
2023-05-17T16:36:22.717Z,4.47
2023-05-17T16:40:34.436Z,3.65
2023-05-17T16:44:46.154Z,5.30
2023-05-17T16:48:57.874Z,2.58
2023-05-17T16:53:10.822Z,3.95
2023-05-17T16:57:22.546Z,6.18
2023-05-17T17:01:34.258Z,3.55
2023-05-17T17:05:46.090Z,8.50
2023-05-17T17:09:57.752Z,5.05
2023-05-17T17:14:11.029Z,5.40
2023-05-17T17:18:22.810Z,2.17
2023-05-17T17:22:35.276Z,8.00
2023-05-17T17:26:47.578Z,4.72
2023-05-17T17:30:59.264Z,6.07
2023-05-17T17:35:10.961Z,3.47
2023-05-17T17:39:22.722Z,8.98
2023-05-17T17:43:34.470Z,4.03
2023-05-17T17:47:46.251Z,4.13
2023-05-17T17:51:58.272Z,4.43
2023-05-17T17:56:10.079Z,4.30
2023-05-17T18:00:21.987Z,6.60
2023-05-17T18:04:33.751Z,3.78
2023-05-17T18:08:46.072Z,3.30
2023-05-17T18:12:58.324Z,8.88
2023-05-17T18:17:10.519Z,3.65
2023-05-17T18:21:22.247Z,4.47
2023-05-17T18:25:34.315Z,6.78
2023-05-17T18:29:46.160Z,2.33
2023-05-17T18:33:57.890Z,8.48
2023-05-17T18:38:10.261Z,3.92
2023-05-17T18:42:22.126Z,3.03
2023-05-17T18:46:34.615Z,5.85
2023-05-17T18:50:46.359Z,7.50
2023-05-17T18:54:58.085Z,3.03
2023-05-17T18:59:09.770Z,5.82
2023-05-17T19:03:22.529Z,6.05
2023-05-17T19:07:34.444Z,3.88
2023-05-17T19:11:46.189Z,6.75
2023-05-17T19:15:57.907Z,6.38
2023-05-17T19:20:09.956Z,7.15
2023-05-17T19:24:21.696Z,4.32
2023-05-17T19:28:35.761Z,3.55
2023-05-17T19:32:47.624Z,7.95
2023-05-17T19:36:59.390Z,8.70
2023-05-17T19:41:11.199Z,5.30
2023-05-17T19:45:23.026Z,3.45
2023-05-17T19:49:34.796Z,4.13
2023-05-17T19:53:53.072Z,2.10
2023-05-17T19:58:06.000Z,8.80
2023-05-17T20:02:17.743Z,4.20
2023-05-17T20:06:29.486Z,6.07
2023-05-17T20:10:41.313Z,6.35
2023-05-17T20:14:53.508Z,4.72
2023-05-17T20:19:05.311Z,4.20
2023-05-17T20:23:17.328Z,3.75
2023-05-17T20:27:29.042Z,6.28
2023-05-17T20:31:40.853Z,4.03
2023-05-17T20:35:53.923Z,2.53
2023-05-17T20:40:08.997Z,4.30
2023-05-17T20:44:21.842Z,4.10
2023-05-17T20:48:34.305Z,3.30
2023-05-17T20:52:46.085Z,4.35
2023-05-17T20:56:58.452Z,1.98
2023-05-17T21:01:10.187Z,2.30
2023-05-17T21:05:21.998Z,2.75
2023-05-17T21:09:34.789Z,4.32
2023-05-17T21:13:46.657Z,2.65
2023-05-17T21:17:58.613Z,2.42
2023-05-17T21:22:10.360Z,4.88
2023-05-17T21:26:23.163Z,2.05
2023-05-17T21:30:34.857Z,2.70
2023-05-17T21:34:46.567Z,6.23
2023-05-17T21:38:58.218Z,2.50
2023-05-17T21:43:11.280Z,3.93
2023-05-17T21:47:23.899Z,4.33
2023-05-17T21:51:35.905Z,3.30
2023-05-17T22:00:04.494Z,2.07
2023-05-17T22:04:18.658Z,6.57
2023-05-17T22:08:30.316Z,4.07
2023-05-17T22:12:42.098Z,2.77
2023-05-17T22:16:56.008Z,4.80
2023-05-17T22:21:08.805Z,5.77
2023-05-17T22:25:20.473Z,4.30
2023-05-17T22:29:33.291Z,3.57
2023-05-17T22:33:45.548Z,2.63
2023-05-17T22:37:57.223Z,4.33
2023-05-17T22:42:09.075Z,1.70
2023-05-17T22:46:20.686Z,1.80
2023-05-17T22:50:33.061Z,2.90
2023-05-17T22:54:44.667Z,3.77
2023-05-17T22:58:56.452Z,6.70
2023-05-17T23:03:08.298Z,7.40
2023-05-17T23:07:20.025Z,7.77
2023-05-17T23:11:32.071Z,7.73
2023-05-17T23:15:46.202Z,7.13
2023-05-17T23:20:10.520Z,3.67
2023-05-17T23:24:25.969Z,1.97
2023-05-17T23:28:37.866Z,6.77
2023-05-17T23:32:51.345Z,4.10
2023-05-17T23:37:03.141Z,6.57
2023-05-17T23:41:18.358Z,4.73
2023-05-17T23:45:30.655Z,5.93
2023-05-17T23:49:42.449Z,4.07
2023-05-17T23:53:54.329Z,6.03
2023-05-17T23:58:05.986Z,2.37
